Time;durP1;ratioP1;P1;durP2;ratioP2;P2;SDS_P1;SDS_P2;PMS_P1;PMS_P2;Temp;Humidity;BMP_temperature;BMP_pressure;BME280_temperature;BME280_humidity;BME280_pressure;Samples;Min_cycle;Max_cycle;Signal;HPM_P1;HPM_P2
2023/02/05 00:02:11;;;;;;;8.37;6.70;;;8.00;59.90;;;;;;4989192;28;20269;-54
2023/02/05 00:04:37;;;;;;;7.10;5.70;;;7.50;60.50;;;;;;4993538;28;20545;-54
2023/02/05 00:07:03;;;;;;;8.10;6.50;;;7.60;61.30;;;;;;4988122;28;20194;-56
2023/02/05 00:09:29;;;;;;;9.50;5.73;;;7.70;61.10;;;;;;4992946;28;20504;-54
2023/02/05 00:11:56;;;;;;;10.73;6.70;;;7.90;60.30;;;;;;4986415;28;20860;-55
2023/02/05 00:14:23;;;;;;;11.00;7.47;;;8.00;59.60;;;;;;4988276;28;20481;-55
2023/02/05 00:16:50;;;;;;;10.00;5.60;;;8.00;59.40;;;;;;4995662;28;20540;-55
2023/02/05 00:19:16;;;;;;;9.17;5.80;;;7.80;59.50;;;;;;4992184;28;20503;-55
2023/02/05 00:21:43;;;;;;;8.60;6.33;;;7.90;59.90;;;;;;4992475;28;20438;-55
2023/02/05 00:24:09;;;;;;;11.37;6.97;;;7.60;59.90;;;;;;4987119;28;20209;-55
2023/02/05 00:26:35;;;;;;;12.00;6.93;;;7.20;61.30;;;;;;4991832;28;20445;-54
2023/02/05 00:29:01;;;;;;;7.37;6.50;;;7.10;62.70;;;;;;4987115;28;20469;-55
2023/02/05 00:31:27;;;;;;;7.93;6.73;;;7.40;62.30;;;;;;4990400;28;20199;-53
2023/02/05 00:33:54;;;;;;;7.00;6.10;;;7.70;61.40;;;;;;4982328;28;20249;-53
2023/02/05 00:36:21;;;;;;;8.17;6.53;;;7.70;60.20;;;;;;4982019;28;20321;-55
2023/02/05 00:38:48;;;;;;;6.87;6.17;;;7.80;60.30;;;;;;4989201;28;20441;-56
2023/02/05 00:41:14;;;;;;;8.60;6.30;;;7.70;59.90;;;;;;4990902;28;20540;-55
2023/02/05 00:43:41;;;;;;;7.63;5.63;;;7.60;60.50;;;;;;4991952;28;20918;-55
2023/02/05 00:46:07;;;;;;;7.33;6.60;;;7.70;60.30;;;;;;4992634;28;20195;-54
2023/02/05 00:48:33;;;;;;;8.73;6.30;;;7.50;59.90;;;;;;4989617;28;20833;-55
2023/02/05 00:50:58;;;;;;;7.30;6.03;;;7.60;60.60;;;;;;4985694;28;20453;-54
2023/02/05 00:53:25;;;;;;;7.03;5.70;;;7.80;59.90;;;;;;4990655;28;20195;-55
2023/02/05 00:55:50;;;;;;;7.70;6.70;;;7.70;59.60;;;;;;4991679;28;20597;-56
2023/02/05 00:58:16;;;;;;;8.00;6.90;;;7.60;59.60;;;;;;4989499;28;20453;-55
2023/02/05 01:00:42;;;;;;;9.93;7.13;;;7.30;60.40;;;;;;4990066;28;20614;-54
2023/02/05 01:03:08;;;;;;;11.80;6.30;;;7.20;61.30;;;;;;4987469;28;20444;-55
2023/02/05 01:05:35;;;;;;;7.33;5.90;;;7.20;61.60;;;;;;4990606;28;20203;-55
2023/02/05 01:08:00;;;;;;;7.60;6.13;;;7.20;61.50;;;;;;4988887;28;20512;-54
2023/02/05 01:10:26;;;;;;;9.97;5.87;;;7.50;61.70;;;;;;4988020;28;20941;-55
2023/02/05 01:12:52;;;;;;;7.23;6.10;;;7.60;60.90;;;;;;4991857;28;20279;-55
2023/02/05 01:15:18;;;;;;;8.17;6.80;;;7.60;60.50;;;;;;4983458;28;20222;-55
2023/02/05 01:17:44;;;;;;;10.23;5.60;;;7.70;60.40;;;;;;4994435;28;20240;-55
2023/02/05 01:20:10;;;;;;;8.27;7.10;;;7.90;59.90;;;;;;4990149;28;20496;-55
2023/02/05 01:22:36;;;;;;;9.27;5.87;;;7.70;59.40;;;;;;4989705;28;20202;-54
2023/02/05 01:25:03;;;;;;;8.27;6.20;;;7.80;59.60;;;;;;4988492;28;21710;-55
2023/02/05 01:27:28;;;;;;;9.87;6.50;;;7.90;59.50;;;;;;4988605;28;20198;-54
2023/02/05 01:29:54;;;;;;;12.43;6.87;;;7.80;59.30;;;;;;4989316;28;20929;-55
2023/02/05 01:32:19;;;;;;;7.80;6.40;;;7.80;59.40;;;;;;4991082;28;20209;-55
2023/02/05 01:34:45;;;;;;;8.20;6.53;;;7.50;59.90;;;;;;4982555;28;20231;-55
2023/02/05 01:37:11;;;;;;;6.93;6.03;;;7.50;60.10;;;;;;4988679;28;20233;-55
2023/02/05 01:39:36;;;;;;;7.93;6.90;;;7.30;61.30;;;;;;4989437;28;20197;-55
2023/02/05 01:42:03;;;;;;;7.97;6.67;;;7.40;61.20;;;;;;4985793;28;20222;-54
2023/02/05 01:44:30;;;;;;;9.40;6.60;;;7.60;61.00;;;;;;4989283;28;20206;-55
2023/02/05 01:46:56;;;;;;;6.03;5.43;;;7.80;60.30;;;;;;4992108;28;20492;-55
2023/02/05 01:49:27;;;;;;;8.47;5.57;;;7.90;59.70;;;;;;4987436;28;20473;-54
2023/02/05 01:51:55;;;;;;;8.00;6.17;;;7.90;59.50;;;;;;4986810;28;20453;-55
2023/02/05 01:54:24;;;;;;;11.03;6.90;;;8.00;59.40;;;;;;4989113;28;21688;-55
2023/02/05 01:56:56;;;;;;;8.83;6.30;;;8.00;59.10;;;;;;4987631;28;20492;-55
2023/02/05 01:59:26;;;;;;;9.40;6.37;;;7.90;59.20;;;;;;4986047;28;20477;-55
2023/02/05 02:01:53;;;;;;;11.50;6.07;;;7.70;59.30;;;;;;4983256;28;20446;-53
2023/02/05 02:04:42;;;;;;;7.60;6.47;;;7.50;59.80;;;;;;4983346;28;20491;-54
2023/02/05 02:07:13;;;;;;;7.47;6.60;;;7.50;60.30;;;;;;4987535;28;20445;-53
2023/02/05 02:09:41;;;;;;;6.53;5.70;;;7.50;60.40;;;;;;4987400;28;20552;-55
2023/02/05 02:12:09;;;;;;;7.13;5.50;;;7.40;60.40;;;;;;4989864;28;20449;-55
2023/02/05 02:14:36;;;;;;;8.97;6.13;;;7.40;60.80;;;;;;4987764;28;20953;-54
2023/02/05 02:17:05;;;;;;;8.30;6.30;;;7.20;60.90;;;;;;4989798;28;20449;-56
2023/02/05 02:19:52;;;;;;;8.97;5.47;;;7.30;61.30;;;;;;4984668;28;20441;-55
2023/02/05 02:22:41;;;;;;;6.77;5.50;;;7.20;61.20;;;;;;4983976;28;20551;-56
2023/02/05 02:25:22;;;;;;;6.43;5.40;;;7.40;60.90;;;;;;4980544;28;20491;-54
2023/02/05 02:28:28;;;;;;;8.90;6.20;;;7.20;60.90;;;;;;4989554;28;20441;-55
2023/02/05 02:31:00;;;;;;;7.60;5.90;;;7.30;60.80;;;;;;5017365;28;20547;-55
2023/02/05 02:33:35;;;;;;;7.20;5.50;;;7.20;60.80;;;;;;5022759;28;20843;-55
2023/02/05 02:36:07;;;;;;;6.13;5.53;;;7.20;61.00;;;;;;4995836;28;20493;-53
2023/02/05 02:39:01;;;;;;;7.40;5.70;;;7.30;61.20;;;;;;4980088;28;20960;-55
2023/02/05 02:41:32;;;;;;;6.43;5.30;;;7.40;60.90;;;;;;4990006;28;20932;-55
2023/02/05 02:44:05;;;;;;;7.10;5.67;;;7.50;60.10;;;;;;4987888;28;20430;-55
2023/02/05 02:46:41;;;;;;;7.00;5.60;;;7.40;60.50;;;;;;4985369;28;20473;-55
2023/02/05 02:49:13;;;;;;;8.20;5.83;;;7.40;60.40;;;;;;4980656;28;20484;-55
2023/02/05 02:51:41;;;;;;;6.53;5.90;;;7.00;61.20;;;;;;4985930;28;21352;-55
2023/02/05 02:54:11;;;;;;;6.33;5.73;;;6.80;61.70;;;;;;4982510;28;20442;-55
2023/02/05 02:56:39;;;;;;;7.33;6.23;;;6.80;62.20;;;;;;4987724;28;21337;-54
2023/02/05 02:59:09;;;;;;;5.57;5.07;;;6.70;62.30;;;;;;4989893;28;20450;-53
2023/02/05 03:01:38;;;;;;;7.70;5.53;;;6.60;62.40;;;;;;4986340;28;20528;-54
2023/02/05 03:04:10;;;;;;;6.13;5.53;;;6.80;62.50;;;;;;4984394;28;20596;-55
2023/02/05 03:06:38;;;;;;;9.27;5.60;;;6.80;62.20;;;;;;4987311;28;20453;-56
2023/02/05 03:09:11;;;;;;;6.93;5.17;;;6.80;62.10;;;;;;4985076;28;20569;-55
2023/02/05 03:11:36;;;;;;;6.83;5.60;;;6.90;61.90;;;;;;4989106;28;20536;-55
2023/02/05 03:14:02;;;;;;;6.60;5.30;;;7.10;61.30;;;;;;4981165;28;20587;-55
2023/02/05 03:16:28;;;;;;;7.67;5.47;;;7.10;61.10;;;;;;4984941;28;20230;-54
2023/02/05 03:18:56;;;;;;;6.87;5.03;;;7.20;60.60;;;;;;4985040;28;20203;-54
2023/02/05 03:21:40;;;;;;;5.53;4.63;;;7.40;60.40;;;;;;4988203;28;20186;-55
2023/02/05 03:24:07;;;;;;;7.30;5.47;;;7.40;59.70;;;;;;4989756;28;20445;-54
2023/02/05 03:26:34;;;;;;;5.60;5.03;;;7.30;59.70;;;;;;4988716;28;21002;-56
2023/02/05 03:29:03;;;;;;;6.00;5.13;;;7.50;59.60;;;;;;4988727;28;20449;-56
2023/02/05 03:31:41;;;;;;;8.33;5.63;;;7.50;59.30;;;;;;4988726;28;20445;-56
2023/02/05 03:34:43;;;;;;;5.77;4.83;;;7.30;59.70;;;;;;4989907;28;20511;-57
2023/02/05 03:37:33;;;;;;;6.33;5.40;;;7.40;59.60;;;;;;4988312;28;20475;-54
2023/02/05 03:40:17;;;;;;;8.13;5.17;;;7.40;59.50;;;;;;4989148;28;20457;-55
2023/02/05 03:43:09;;;;;;;6.20;4.90;;;7.50;59.10;;;;;;4988053;28;20445;-55
2023/02/05 03:46:00;;;;;;;7.60;5.67;;;7.40;59.10;;;;;;4991127;28;20430;-53
2023/02/05 03:48:34;;;;;;;5.23;4.73;;;7.20;59.40;;;;;;4986232;28;20474;-55
2023/02/05 03:51:08;;;;;;;6.70;5.10;;;7.20;59.80;;;;;;4988413;28;20809;-56
2023/02/05 03:54:16;;;;;;;5.23;4.50;;;7.00;60.20;;;;;;4989489;28;20540;-56
2023/02/05 03:57:00;;;;;;;5.80;4.90;;;7.00;60.50;;;;;;4989685;28;20960;-55
2023/02/05 03:59:27;;;;;;;6.23;4.67;;;7.20;59.90;;;;;;4990893;28;20436;-56
2023/02/05 04:01:53;;;;;;;5.83;4.53;;;7.20;59.30;;;;;;4988773;28;20441;-56
2023/02/05 04:04:20;;;;;;;6.23;5.10;;;7.10;59.30;;;;;;4990916;28;20473;-56
2023/02/05 04:06:48;;;;;;;7.97;5.47;;;6.90;60.10;;;;;;4993028;28;20434;-55
2023/02/05 04:09:13;;;;;;;8.27;5.93;;;6.90;59.70;;;;;;4992880;28;20422;-56
2023/02/05 04:11:39;;;;;;;5.10;4.20;;;6.70;60.50;;;;;;4990881;28;20493;-56
2023/02/05 04:14:05;;;;;;;6.37;5.00;;;6.70;60.30;;;;;;4991959;28;20202;-56
2023/02/05 04:16:30;;;;;;;6.53;5.80;;;6.60;60.80;;;;;;4993128;28;20219;-55
2023/02/05 04:18:56;;;;;;;9.43;5.30;;;6.50;61.20;;;;;;4991413;28;20689;-55
2023/02/05 04:21:22;;;;;;;7.73;5.40;;;6.30;61.60;;;;;;4999006;28;20193;-56
2023/02/05 04:23:47;;;;;;;6.97;5.40;;;6.30;61.80;;;;;;4993642;28;20222;-56
2023/02/05 04:26:13;;;;;;;6.50;5.43;;;6.30;61.90;;;;;;4991884;28;21279;-57
2023/02/05 04:28:38;;;;;;;5.73;4.83;;;6.40;62.10;;;;;;4992171;28;20199;-55
2023/02/05 04:31:08;;;;;;;6.40;5.20;;;6.30;61.80;;;;;;4993048;28;20636;-55
2023/02/05 04:33:34;;;;;;;10.10;5.23;;;6.30;62.00;;;;;;4991082;28;20205;-55
2023/02/05 04:35:59;;;;;;;7.40;6.00;;;6.50;62.30;;;;;;4992021;28;20489;-57
2023/02/05 04:38:26;;;;;;;9.43;6.70;;;6.60;61.80;;;;;;4990938;28;20210;-55
2023/02/05 04:40:51;;;;;;;7.27;6.00;;;6.60;61.10;;;;;;4991073;28;20402;-55
2023/02/05 04:43:17;;;;;;;6.17;5.33;;;6.80;60.80;;;;;;4993766;28;20477;-55
2023/02/05 04:45:43;;;;;;;9.87;6.10;;;6.90;60.30;;;;;;4992007;28;20274;-56
2023/02/05 04:48:08;;;;;;;7.37;5.23;;;6.90;60.20;;;;;;4991834;28;20980;-56
2023/02/05 04:50:34;;;;;;;8.20;5.87;;;6.80;60.20;;;;;;4991921;28;20241;-55
2023/02/05 04:53:03;;;;;;;10.63;5.33;;;6.80;60.40;;;;;;4993263;28;20713;-56
2023/02/05 04:55:29;;;;;;;7.20;4.73;;;6.70;60.50;;;;;;4992563;28;20287;-56
2023/02/05 04:57:55;;;;;;;8.97;5.37;;;6.70;60.90;;;;;;4991832;28;20458;-56
2023/02/05 05:00:21;;;;;;;7.80;5.50;;;6.60;60.90;;;;;;4989957;28;20460;-56
2023/02/05 05:02:46;;;;;;;7.17;5.77;;;6.40;61.90;;;;;;4991680;28;20233;-56
2023/02/05 05:05:12;;;;;;;5.97;5.33;;;6.40;61.90;;;;;;4990984;28;20646;-55
2023/02/05 05:07:38;;;;;;;5.60;5.00;;;6.50;62.00;;;;;;4990158;28;20191;-56
2023/02/05 05:10:06;;;;;;;7.47;5.80;;;6.60;61.70;;;;;;4991535;28;21047;-54
2023/02/05 05:12:32;;;;;;;6.60;5.50;;;6.50;61.60;;;;;;4992574;28;20194;-54
2023/02/05 05:14:58;;;;;;;8.23;5.50;;;6.50;61.60;;;;;;4992410;28;20988;-56
2023/02/05 05:17:23;;;;;;;8.00;5.30;;;6.60;62.50;;;;;;4991141;28;20461;-56
2023/02/05 05:19:49;;;;;;;6.40;4.90;;;6.60;61.40;;;;;;4991806;28;20220;-55
2023/02/05 05:22:14;;;;;;;6.00;5.40;;;6.70;61.10;;;;;;4992900;28;20229;-55
2023/02/05 05:24:40;;;;;;;8.53;5.13;;;6.80;60.60;;;;;;4992071;28;20942;-56
2023/02/05 05:27:06;;;;;;;7.83;5.10;;;6.90;60.10;;;;;;4991084;28;20321;-56
2023/02/05 05:29:31;;;;;;;5.10;4.60;;;7.00;60.00;;;;;;4991591;28;20246;-56
2023/02/05 05:31:57;;;;;;;5.70;5.07;;;7.20;59.60;;;;;;4990766;28;20321;-57
2023/02/05 05:34:23;;;;;;;6.10;4.80;;;7.10;59.30;;;;;;4990451;28;20240;-55
2023/02/05 05:36:48;;;;;;;6.77;5.90;;;7.10;59.60;;;;;;4991879;28;20199;-56
2023/02/05 05:44:43;;;;;;;7.93;5.23;;;7.10;59.30;;;;;;4988363;28;20517;-56
2023/02/05 05:47:09;;;;;;;7.13;5.13;;;7.20;59.30;;;;;;4990000;28;21032;-56
2023/02/05 05:49:34;;;;;;;6.97;5.27;;;7.30;59.10;;;;;;4991288;28;20230;-56
2023/02/05 05:52:00;;;;;;;6.80;5.40;;;7.40;59.00;;;;;;4991782;28;20195;-55
2023/02/05 05:54:25;;;;;;;9.63;5.80;;;7.30;58.90;;;;;;4991422;28;20682;-57
2023/02/05 05:56:51;;;;;;;5.90;4.83;;;7.10;59.30;;;;;;4990803;28;20203;-56
2023/02/05 05:59:17;;;;;;;9.70;5.90;;;6.90;59.90;;;;;;4992467;28;20195;-56
2023/02/05 06:01:42;;;;;;;6.90;5.07;;;6.70;60.80;;;;;;4982952;28;20546;-56
2023/02/05 06:04:08;;;;;;;11.50;6.00;;;6.60;61.70;;;;;;4991305;28;20195;-56
2023/02/05 06:06:34;;;;;;;7.00;5.30;;;6.60;61.70;;;;;;4990186;28;20190;-56
2023/02/05 06:08:59;;;;;;;6.53;5.50;;;6.80;61.70;;;;;;4993164;28;20209;-55
2023/02/05 06:11:25;;;;;;;5.60;5.03;;;6.80;61.00;;;;;;4990691;28;20190;-56
2023/02/05 06:13:50;;;;;;;7.33;5.53;;;6.90;60.90;;;;;;4990818;28;20326;-56
2023/02/05 06:16:16;;;;;;;6.03;4.90;;;6.90;60.80;;;;;;4991167;28;20583;-56
2023/02/05 06:18:41;;;;;;;5.93;4.97;;;7.00;60.50;;;;;;4998124;28;20193;-56
2023/02/05 06:21:08;;;;;;;6.80;5.57;;;7.00;60.10;;;;;;4991982;28;20195;-56
2023/02/05 06:23:34;;;;;;;7.53;5.57;;;7.10;59.80;;;;;;4991827;28;20250;-54
2023/02/05 06:25:59;;;;;;;8.93;5.43;;;7.10;59.90;;;;;;4991146;28;20948;-56
2023/02/05 06:28:25;;;;;;;6.33;5.23;;;7.20;59.90;;;;;;4988197;28;20206;-55
2023/02/05 06:30:50;;;;;;;6.40;5.10;;;7.30;59.60;;;;;;4990116;28;20673;-56
2023/02/05 06:33:16;;;;;;;6.43;5.73;;;7.50;59.40;;;;;;4991170;28;20202;-55
2023/02/05 06:35:42;;;;;;;10.30;5.80;;;7.50;59.30;;;;;;4992433;28;20273;-55
2023/02/05 06:38:08;;;;;;;8.37;6.30;;;7.60;59.10;;;;;;4990422;28;20191;-54
2023/02/05 06:40:33;;;;;;;9.20;5.17;;;7.50;59.00;;;;;;4992001;28;20203;-55
2023/02/05 06:42:59;;;;;;;6.10;5.50;;;7.60;59.10;;;;;;4990365;28;20468;-57
2023/02/05 06:45:25;;;;;;;9.80;5.40;;;7.60;59.90;;;;;;4990601;28;20573;-57
2023/02/05 06:47:54;;;;;;;9.37;5.27;;;7.70;61.70;;;;;;4989650;28;20257;-57
2023/02/05 06:50:21;;;;;;;6.70;5.30;;;8.10;63.50;;;;;;4991655;28;20288;-57
2023/02/05 06:52:46;;;;;;;9.60;5.20;;;8.50;62.90;;;;;;4989503;28;20992;-57
2023/02/05 06:55:12;;;;;;;6.30;4.93;;;8.70;61.40;;;;;;4987552;28;20493;-58
2023/02/05 06:57:38;;;;;;;6.80;4.70;;;9.00;59.80;;;;;;4989469;28;20215;-58
2023/02/05 07:00:05;;;;;;;5.23;4.73;;;9.20;59.60;;;;;;4989425;28;20206;-58
2023/02/05 07:02:31;;;;;;;8.10;5.60;;;9.40;58.60;;;;;;4985211;28;20264;-58
2023/02/05 07:04:56;;;;;;;6.80;5.30;;;9.60;58.00;;;;;;4990078;28;20449;-58
2023/02/05 07:07:22;;;;;;;6.50;5.20;;;9.80;57.10;;;;;;4990994;28;20198;-58
2023/02/05 07:09:48;;;;;;;6.40;5.10;;;9.90;56.40;;;;;;4981393;28;20193;-58
2023/02/05 07:12:13;;;;;;;6.47;5.07;;;9.90;55.80;;;;;;4987566;28;20236;-58
2023/02/05 07:14:40;;;;;;;7.20;5.13;;;10.00;54.90;;;;;;4993168;28;20590;-58
2023/02/05 07:17:06;;;;;;;8.90;5.70;;;10.20;54.70;;;;;;4989102;28;20190;-57
2023/02/05 07:19:33;;;;;;;7.80;4.80;;;10.20;54.10;;;;;;4991325;28;20457;-58
2023/02/05 07:21:58;;;;;;;5.57;5.07;;;10.30;53.70;;;;;;4989802;28;20421;-57
2023/02/05 07:24:24;;;;;;;6.80;5.33;;;10.40;53.50;;;;;;4987119;28;20437;-58
2023/02/05 07:26:50;;;;;;;10.07;5.57;;;10.40;53.40;;;;;;4991127;28;20590;-57
2023/02/05 07:29:15;;;;;;;8.93;5.70;;;10.50;53.40;;;;;;4988464;28;20214;-57
2023/02/05 07:31:41;;;;;;;6.30;5.20;;;10.40;52.40;;;;;;4987592;28;20207;-56
2023/02/05 07:34:06;;;;;;;7.17;5.43;;;10.10;52.70;;;;;;4988519;28;20194;-56
2023/02/05 07:36:32;;;;;;;6.30;5.67;;;10.00;52.90;;;;;;4990210;28;20681;-56
2023/02/05 07:38:58;;;;;;;7.67;5.30;;;9.90;54.10;;;;;;4995222;28;20669;-57
2023/02/05 07:41:25;;;;;;;6.20;5.00;;;10.00;53.50;;;;;;4994352;28;20710;-57
2023/02/05 07:43:52;;;;;;;8.03;5.70;;;10.00;53.50;;;;;;4994089;28;20202;-57
2023/02/05 07:46:18;;;;;;;6.73;5.17;;;10.20;53.40;;;;;;4995593;28;20434;-56
2023/02/05 07:48:44;;;;;;;6.90;5.97;;;10.40;53.20;;;;;;4994451;28;20553;-57
2023/02/05 07:51:16;;;;;;;6.80;5.53;;;10.30;52.80;;;;;;4993045;28;20513;-57
2023/02/05 07:53:42;;;;;;;6.83;5.40;;;10.30;52.90;;;;;;4994670;28;20202;-56
2023/02/05 07:56:07;;;;;;;5.70;5.00;;;10.30;52.60;;;;;;4992509;28;20489;-58
2023/02/05 07:58:33;;;;;;;8.17;5.00;;;10.30;52.60;;;;;;4994199;28;20597;-58
2023/02/05 08:01:02;;;;;;;9.63;5.87;;;10.40;52.70;;;;;;4993237;28;20198;-57
2023/02/05 08:03:28;;;;;;;11.77;6.50;;;10.50;52.40;;;;;;4994501;28;20217;-57
2023/02/05 08:05:54;;;;;;;8.33;5.80;;;10.60;52.30;;;;;;4992534;28;20500;-57
2023/02/05 08:08:21;;;;;;;9.07;6.20;;;10.70;52.00;;;;;;4993681;28;20791;-58
2023/02/05 08:10:47;;;;;;;7.73;6.03;;;10.70;51.60;;;;;;4991917;28;20198;-58
2023/02/05 08:13:12;;;;;;;6.03;5.00;;;10.60;52.00;;;;;;5000519;28;20451;-57
2023/02/05 08:15:41;;;;;;;6.10;5.50;;;10.30;51.90;;;;;;4995431;28;20600;-57
2023/02/05 08:18:06;;;;;;;5.97;5.33;;;10.30;52.70;;;;;;4992340;28;20205;-57
2023/02/05 08:20:32;;;;;;;8.40;6.87;;;10.40;52.40;;;;;;4994092;28;20552;-58
2023/02/05 08:22:57;;;;;;;7.80;5.80;;;10.60;52.50;;;;;;4995158;28;20191;-58
2023/02/05 08:25:23;;;;;;;9.30;6.30;;;10.60;52.20;;;;;;4996040;28;20194;-57
2023/02/05 08:27:49;;;;;;;7.10;5.50;;;10.70;51.70;;;;;;4991283;28;20194;-58
2023/02/05 08:30:16;;;;;;;10.30;7.67;;;10.60;51.70;;;;;;4992107;28;20314;-58
2023/02/05 08:32:47;;;;;;;15.07;11.30;;;10.50;52.00;;;;;;4984516;28;20655;-58
2023/02/05 08:35:13;;;;;;;19.20;12.50;;;10.60;52.20;;;;;;4993840;28;20584;-56
2023/02/05 08:37:38;;;;;;;20.27;12.07;;;10.80;52.20;;;;;;4993745;28;20516;-57
2023/02/05 08:40:04;;;;;;;17.43;11.00;;;10.80;52.10;;;;;;4994057;28;20199;-56
2023/02/05 08:42:30;;;;;;;11.73;6.87;;;10.90;52.00;;;;;;4992986;28;20654;-57
2023/02/05 08:44:57;;;;;;;10.13;6.70;;;10.80;51.30;;;;;;4992116;28;20198;-57
2023/02/05 08:47:23;;;;;;;9.97;6.63;;;10.40;52.00;;;;;;4993630;28;20199;-58
2023/02/05 08:49:49;;;;;;;12.33;8.40;;;10.40;52.60;;;;;;4992293;28;20473;-57
2023/02/05 08:52:14;;;;;;;10.47;8.07;;;10.60;52.70;;;;;;4992791;28;20446;-56
2023/02/05 08:54:43;;;;;;;11.00;7.30;;;10.40;52.10;;;;;;4993587;28;20202;-56
2023/02/05 08:57:08;;;;;;;10.53;7.43;;;10.40;52.70;;;;;;4993252;28;20232;-56
2023/02/05 08:59:34;;;;;;;11.30;7.93;;;10.40;52.50;;;;;;4993413;28;20524;-56
2023/02/05 09:02:01;;;;;;;7.97;6.27;;;10.20;53.20;;;;;;4992441;28;20245;-57
2023/02/05 09:04:26;;;;;;;7.73;6.83;;;10.30;52.80;;;;;;4990983;28;20568;-57
2023/02/05 09:06:52;;;;;;;8.43;6.80;;;10.30;53.10;;;;;;4992471;28;20441;-57
2023/02/05 09:09:18;;;;;;;8.73;7.10;;;10.40;53.00;;;;;;4993304;28;20650;-57
2023/02/05 09:11:48;;;;;;;8.93;6.93;;;10.60;53.20;;;;;;4990938;28;20195;-57
2023/02/05 09:14:13;;;;;;;8.70;6.17;;;10.70;53.00;;;;;;4990667;28;20444;-57
2023/02/05 09:16:40;;;;;;;7.77;6.30;;;10.70;53.00;;;;;;4992118;28;20493;-57
2023/02/05 09:19:06;;;;;;;9.60;6.70;;;10.90;53.00;;;;;;4998045;28;20646;-57
2023/02/05 09:21:32;;;;;;;10.97;7.17;;;11.00;52.80;;;;;;4992555;28;20446;-57
2023/02/05 09:23:57;;;;;;;8.90;6.60;;;11.10;52.60;;;;;;4991339;28;20823;-57
2023/02/05 09:26:23;;;;;;;8.13;6.77;;;11.10;52.50;;;;;;4992100;28;20201;-57
2023/02/05 09:28:49;;;;;;;9.20;6.20;;;11.30;52.60;;;;;;4991657;28;20201;-57
2023/02/05 09:31:17;;;;;;;9.57;6.83;;;11.40;52.40;;;;;;4989784;28;20443;-57
2023/02/05 09:33:43;;;;;;;9.57;6.87;;;11.40;52.10;;;;;;4989089;28;20273;-56
2023/02/05 09:36:21;;;;;;;9.20;7.63;;;11.50;52.00;;;;;;4990315;28;20584;-56
2023/02/05 09:38:48;;;;;;;10.93;7.87;;;11.50;52.30;;;;;;4991041;28;20190;-56
2023/02/05 09:41:14;;;;;;;8.97;7.67;;;11.50;52.40;;;;;;4994954;28;20444;-56
2023/02/05 09:43:57;;;;;;;11.87;8.57;;;11.40;52.60;;;;;;4993916;28;20449;-57
2023/02/05 09:46:32;;;;;;;8.83;7.87;;;11.40;52.60;;;;;;4990764;28;20647;-57
2023/02/05 09:49:08;;;;;;;9.53;7.90;;;11.20;52.70;;;;;;4989158;28;20571;-57
2023/02/05 09:51:36;;;;;;;9.40;7.90;;;10.80;54.00;;;;;;4993282;28;20461;-57
2023/02/05 09:54:14;;;;;;;7.50;6.80;;;10.50;54.00;;;;;;4988991;28;20453;-57
2023/02/05 09:56:42;;;;;;;8.57;6.80;;;10.30;55.60;;;;;;4988876;28;20632;-57
2023/02/05 09:59:15;;;;;;;15.27;7.70;;;10.30;56.00;;;;;;4990368;28;20441;-56
2023/02/05 10:01:55;;;;;;;7.50;6.70;;;10.40;56.00;;;;;;4993035;28;20469;-56
2023/02/05 10:04:20;;;;;;;12.90;7.27;;;10.40;55.80;;;;;;4985911;28;20449;-55
2023/02/05 10:07:17;;;;;;;9.30;6.73;;;10.40;55.70;;;;;;4988286;28;20499;-56
2023/02/05 10:09:56;;;;;;;9.93;6.23;;;10.40;56.00;;;;;;5001968;28;20773;-56
2023/02/05 10:12:34;;;;;;;10.57;7.60;;;10.60;56.20;;;;;;4990847;28;20456;-56
2023/02/05 10:15:19;;;;;;;13.33;8.13;;;10.80;55.90;;;;;;4984860;28;20833;-57
2023/02/05 10:18:00;;;;;;;12.43;8.00;;;10.90;55.70;;;;;;4991068;28;20464;-57
2023/02/05 10:20:37;;;;;;;11.77;8.37;;;10.90;55.80;;;;;;4992535;28;20933;-58
2023/02/05 10:23:21;;;;;;;13.17;8.53;;;10.90;56.00;;;;;;4991883;28;20464;-57
2023/02/05 10:26:12;;;;;;;11.77;8.77;;;10.90;55.90;;;;;;4981940;28;20516;-57
2023/02/05 10:28:56;;;;;;;14.90;8.90;;;11.00;56.10;;;;;;4991987;28;20458;-57
2023/02/05 10:31:43;;;;;;;11.80;8.67;;;10.90;56.10;;;;;;4991065;28;20949;-58
2023/02/05 10:34:33;;;;;;;12.00;10.20;;;10.80;56.30;;;;;;4988807;28;20524;-57
2023/02/05 10:37:00;;;;;;;12.47;9.50;;;10.80;56.70;;;;;;4989540;28;20821;-57
2023/02/05 10:39:29;;;;;;;10.93;9.37;;;10.60;57.20;;;;;;4991170;28;20847;-57
2023/02/05 10:42:03;;;;;;;13.47;9.37;;;10.40;57.70;;;;;;4990196;28;20446;-57
2023/02/05 10:44:45;;;;;;;12.90;9.47;;;10.60;58.10;;;;;;4987365;28;20484;-57
2023/02/05 10:47:39;;;;;;;10.10;9.10;;;10.70;57.60;;;;;;4989804;28;20452;-57
2023/02/05 10:50:35;;;;;;;15.13;9.67;;;10.20;58.10;;;;;;4987520;28;20968;-57
2023/02/05 10:53:00;;;;;;;14.03;9.70;;;9.70;60.20;;;;;;4989973;28;20461;-57
2023/02/05 10:55:27;;;;;;;11.80;9.10;;;9.70;61.80;;;;;;4990141;28;20837;-57
2023/02/05 10:57:53;;;;;;;10.37;8.00;;;9.80;61.40;;;;;;4990561;28;20337;-57
2023/02/05 11:00:21;;;;;;;9.43;8.30;;;9.90;61.30;;;;;;4990180;28;20442;-58
2023/02/05 11:02:53;;;;;;;10.33;7.33;;;10.20;59.90;;;;;;4989949;28;20520;-58
2023/02/05 11:05:30;;;;;;;10.03;7.50;;;10.30;59.50;;;;;;4991072;28;20535;-58
2023/02/05 11:07:57;;;;;;;14.23;9.23;;;10.30;59.60;;;;;;4990210;28;20655;-58
2023/02/05 11:10:28;;;;;;;8.63;7.70;;;10.40;59.00;;;;;;4988486;28;20791;-58
2023/02/05 11:13:17;;;;;;;10.03;7.17;;;10.20;59.90;;;;;;4987746;28;20567;-58
2023/02/05 11:16:02;;;;;;;16.63;7.90;;;10.40;60.00;;;;;;4990329;28;21057;-58
2023/02/05 11:18:43;;;;;;;12.73;8.33;;;10.50;59.40;;;;;;4990700;28;20828;-58
2023/02/05 11:21:10;;;;;;;9.43;7.33;;;10.60;59.30;;;;;;4988829;28;20497;-58
2023/02/05 11:23:38;;;;;;;8.47;7.07;;;10.60;59.60;;;;;;4990321;28;20418;-58
2023/02/05 11:26:07;;;;;;;10.93;7.93;;;10.70;59.30;;;;;;4989929;28;20473;-58
2023/02/05 11:28:35;;;;;;;13.40;7.70;;;10.70;59.40;;;;;;4989316;28;20468;-58
2023/02/05 11:31:27;;;;;;;12.03;7.73;;;10.80;59.30;;;;;;4989693;28;20449;-58
2023/02/05 11:34:08;;;;;;;11.47;7.30;;;11.00;59.00;;;;;;4986202;28;20452;-58
2023/02/05 11:36:48;;;;;;;13.30;10.00;;;11.10;58.60;;;;;;4995840;28;20489;-58
2023/02/05 11:39:35;;;;;;;21.10;10.33;;;11.00;58.90;;;;;;4987262;28;20453;-57
2023/02/05 11:42:20;;;;;;;16.00;9.30;;;11.00;58.80;;;;;;4989344;28;20532;-56
2023/02/05 11:44:58;;;;;;;13.70;8.87;;;10.90;59.00;;;;;;4984965;28;20445;-55
2023/02/05 11:47:29;;;;;;;10.93;8.37;;;10.70;59.40;;;;;;4992805;28;20452;-56
2023/02/05 11:49:55;;;;;;;11.90;7.10;;;10.60;59.70;;;;;;4990047;28;20492;-56
2023/02/05 11:52:31;;;;;;;11.00;8.50;;;10.60;60.10;;;;;;4988705;28;20441;-55
2023/02/05 11:54:57;;;;;;;10.20;8.50;;;10.60;60.20;;;;;;4991345;28;20493;-56
2023/02/05 11:57:34;;;;;;;13.13;7.83;;;10.50;60.70;;;;;;4990339;28;20440;-56
2023/02/05 12:00:07;;;;;;;12.47;8.23;;;10.30;61.60;;;;;;4990288;28;20237;-56
2023/02/05 12:02:35;;;;;;;7.83;7.03;;;10.30;61.80;;;;;;4988866;28;20474;-55
2023/02/05 12:05:12;;;;;;;14.93;8.17;;;10.30;61.50;;;;;;4988244;28;20848;-55
2023/02/05 12:08:01;;;;;;;16.50;7.93;;;10.30;61.70;;;;;;4988521;28;20536;-56
2023/02/05 12:10:39;;;;;;;13.77;8.00;;;10.30;61.50;;;;;;4990118;28;20829;-56
2023/02/05 12:13:26;;;;;;;13.07;8.30;;;10.40;61.30;;;;;;4990755;28;20909;-55
2023/02/05 12:16:01;;;;;;;9.77;8.53;;;10.30;62.00;;;;;;4986823;28;20528;-55
2023/02/05 12:18:54;;;;;;;10.10;7.60;;;10.20;62.70;;;;;;4989994;28;20452;-55
2023/02/05 12:21:29;;;;;;;13.53;8.70;;;10.30;62.70;;;;;;4990128;28;20457;-56
2023/02/05 12:24:09;;;;;;;10.63;8.20;;;10.40;61.90;;;;;;4990950;28;20787;-56
2023/02/05 12:26:38;;;;;;;14.50;9.50;;;10.40;61.60;;;;;;4986942;28;20445;-56
2023/02/05 12:29:38;;;;;;;16.87;8.90;;;10.50;61.50;;;;;;4993885;28;20433;-56
2023/02/05 12:32:24;;;;;;;16.33;8.50;;;10.30;62.00;;;;;;4993398;28;20453;-56
2023/02/05 12:34:49;;;;;;;14.20;9.23;;;10.40;62.20;;;;;;4992898;28;20445;-55
2023/02/05 12:37:41;;;;;;;14.20;8.23;;;10.40;61.80;;;;;;4991072;28;20807;-56
2023/02/05 12:40:50;;;;;;;11.67;8.57;;;10.50;61.80;;;;;;4990625;28;20584;-56
2023/02/05 12:43:30;;;;;;;9.47;7.60;;;10.50;61.70;;;;;;4990694;28;20576;-55
2023/02/05 12:46:44;;;;;;;13.87;8.27;;;10.50;61.90;;;;;;4990254;28;20442;-55
2023/02/05 12:49:12;;;;;;;10.80;7.87;;;10.50;62.10;;;;;;4990239;28;20516;-56
2023/02/05 12:51:52;;;;;;;10.90;7.70;;;10.60;62.60;;;;;;4991615;28;20795;-56
2023/02/05 12:54:42;;;;;;;11.03;7.53;;;10.50;62.90;;;;;;4990883;28;20473;-57
2023/02/05 12:57:15;;;;;;;10.53;7.03;;;10.40;64.00;;;;;;4986141;28;20460;-57
2023/02/05 12:59:51;;;;;;;14.20;8.20;;;10.40;63.90;;;;;;4990382;28;20453;-56
2023/02/05 13:02:46;;;;;;;12.30;8.33;;;10.50;64.00;;;;;;4992487;28;20441;-56
2023/02/05 13:05:32;;;;;;;10.77;7.50;;;10.50;63.40;;;;;;4989447;28;20485;-57
2023/02/05 13:08:30;;;;;;;12.33;8.63;;;10.60;63.10;;;;;;4996495;28;20457;-57
2023/02/05 13:11:04;;;;;;;13.00;8.47;;;10.60;63.00;;;;;;4992150;28;21029;-56
2023/02/05 13:13:45;;;;;;;9.77;7.70;;;10.70;63.70;;;;;;4992643;28;20452;-56
2023/02/05 13:16:15;;;;;;;11.67;8.40;;;10.70;62.70;;;;;;4990499;28;20493;-56